createdAt,value
2023-02-21T00:02:20.345Z,97776.84
2023-02-21T00:05:40.563Z,97781.25
2023-02-21T00:09:00.793Z,97779.59
2023-02-21T00:12:20.731Z,97780.56
2023-02-21T00:15:40.994Z,97778.78
2023-02-21T00:19:00.868Z,97778.69
2023-02-21T00:22:20.667Z,97769.22
2023-02-21T00:25:40.556Z,97777.41
2023-02-21T00:29:00.484Z,97768.53
2023-02-21T00:32:20.570Z,97765.44
2023-02-21T00:35:40.640Z,97762.00
2023-02-21T00:39:00.389Z,97760.94
2023-02-21T00:42:20.782Z,97752.38
2023-02-21T00:45:40.609Z,97748.81
2023-02-21T00:49:00.656Z,97747.63
2023-02-21T00:52:20.576Z,97741.09
2023-02-21T00:55:40.507Z,97740.38
2023-02-21T00:59:00.425Z,97741.44
2023-02-21T01:02:20.654Z,97743.09
2023-02-21T01:05:40.901Z,97733.53
2023-02-21T01:09:05.420Z,97733.94
2023-02-21T01:12:25.421Z,97732.06
2023-02-21T01:15:45.375Z,97732.09
2023-02-21T01:19:07.755Z,97731.88
2023-02-21T01:22:27.938Z,97731.22
2023-02-21T01:25:48.220Z,97730.81
2023-02-21T01:29:08.170Z,97731.84
2023-02-21T01:32:28.466Z,97733.47
2023-02-21T01:35:48.580Z,97736.50
2023-02-21T01:39:08.945Z,97726.31
2023-02-21T01:42:29.944Z,97723.28
2023-02-21T01:46:02.281Z,97719.84
2023-02-21T01:49:31.569Z,97721.00
2023-02-21T01:52:52.085Z,97716.03
2023-02-21T01:56:14.589Z,97711.63
2023-02-21T01:59:38.862Z,97712.78
2023-02-21T02:03:10.850Z,97703.91
2023-02-21T02:06:35.281Z,97705.59
2023-02-21T02:09:55.458Z,97702.75
2023-02-21T02:13:08.801Z,97693.19
2023-02-21T02:16:20.934Z,97684.50
2023-02-21T02:19:54.005Z,97680.25
2023-02-21T02:23:16.658Z,97687.25
2023-02-21T02:26:47.354Z,97684.34
2023-02-21T02:30:08.027Z,97673.19
2023-02-21T02:33:29.355Z,97666.25
2023-02-21T02:36:39.706Z,97673.41
2023-02-21T02:40:02.662Z,97668.44
2023-02-21T02:43:30.820Z,97668.56
2023-02-21T02:46:37.821Z,97669.72
2023-02-21T02:49:43.289Z,97670.84
2023-02-21T02:52:53.730Z,97670.47
2023-02-21T02:56:00.738Z,97667.88
2023-02-21T02:59:08.917Z,97659.03
2023-02-21T03:02:16.502Z,97663.25
2023-02-21T03:05:36.294Z,97658.81
2023-02-21T03:09:09.094Z,97662.22
2023-02-21T03:12:16.739Z,97653.59
2023-02-21T03:15:27.374Z,97651.59
2023-02-21T03:18:37.789Z,97650.53
2023-02-21T03:21:46.892Z,97647.31
2023-02-21T03:24:50.676Z,97643.66
2023-02-21T03:27:55.277Z,97640.44
2023-02-21T03:31:04.597Z,97645.25
2023-02-21T03:34:06.770Z,97646.59
2023-02-21T03:37:11.413Z,97646.59
2023-02-21T03:40:17.456Z,97646.16
2023-02-21T03:43:23.110Z,97652.22
2023-02-21T03:46:30.974Z,97650.44
2023-02-21T03:49:32.722Z,97657.81
2023-02-21T03:52:34.554Z,97651.44
2023-02-21T03:55:36.459Z,97646.22
2023-02-21T03:58:42.667Z,97644.47
2023-02-21T04:01:44.519Z,97649.44
2023-02-21T04:04:48.488Z,97640.28
2023-02-21T04:07:52.385Z,97643.97
2023-02-21T04:10:53.844Z,97636.47
2023-02-21T04:13:57.777Z,97644.88
2023-02-21T04:16:59.224Z,97645.28
2023-02-21T04:20:01.329Z,97644.38
2023-02-21T04:23:03.951Z,97643.91
2023-02-21T04:26:06.883Z,97643.97
2023-02-21T04:29:15.761Z,97637.63
2023-02-21T04:32:17.704Z,97637.44
2023-02-21T04:35:19.521Z,97638.47
2023-02-21T04:38:21.858Z,97644.19
2023-02-21T04:41:23.608Z,97644.72
2023-02-21T04:44:25.193Z,97645.34
2023-02-21T04:47:26.702Z,97648.66
2023-02-21T04:50:28.727Z,97649.00
2023-02-21T04:53:30.174Z,97647.25
2023-02-21T04:56:32.647Z,97649.97
2023-02-21T04:59:34.113Z,97653.69
2023-02-21T05:02:35.740Z,97651.25
2023-02-21T05:05:37.312Z,97651.25
2023-02-21T05:08:38.766Z,97645.75
2023-02-21T05:11:41.305Z,97646.25
2023-02-21T05:14:43.136Z,97645.66
2023-02-21T05:17:46.272Z,97643.59
2023-02-21T05:20:48.089Z,97642.25
2023-02-21T05:23:58.244Z,97628.50
2023-02-21T05:26:59.798Z,97635.59
2023-02-21T05:30:01.414Z,97638.09
2023-02-21T05:33:02.981Z,97641.63
2023-02-21T05:36:04.843Z,97632.06
2023-02-21T05:39:07.863Z,97641.72
2023-02-21T05:42:09.718Z,97637.28
2023-02-21T05:45:11.580Z,97643.63
2023-02-21T05:48:13.070Z,97641.00
2023-02-21T05:51:15.994Z,97645.28
2023-02-21T05:54:20.439Z,97638.31
2023-02-21T05:57:22.045Z,97636.31
2023-02-21T06:00:28.969Z,97638.72
2023-02-21T06:03:30.680Z,97629.66
2023-02-21T06:06:32.204Z,97633.31
2023-02-21T06:09:33.976Z,97628.94
2023-02-21T06:12:36.350Z,97622.41
2023-02-21T06:15:37.802Z,97623.75
2023-02-21T06:18:39.617Z,97621.47
2023-02-21T06:21:42.021Z,97622.91
2023-02-21T06:24:43.892Z,97626.03
2023-02-21T06:27:45.418Z,97617.50
2023-02-21T06:30:46.950Z,97625.75
2023-02-21T06:33:50.021Z,97627.91
2023-02-21T06:36:52.973Z,97627.38
2023-02-21T06:39:54.866Z,97636.31
2023-02-21T06:42:56.361Z,97636.84
2023-02-21T06:45:57.905Z,97633.28
2023-02-21T06:48:59.636Z,97629.53
2023-02-21T06:52:01.345Z,97636.28
2023-02-21T06:55:02.866Z,97642.44
2023-02-21T06:58:05.172Z,97642.00
2023-02-21T07:01:06.688Z,97645.53
2023-02-21T07:04:08.112Z,97649.09
2023-02-21T07:07:09.560Z,97643.56
2023-02-21T07:10:11.571Z,97644.50
2023-02-21T07:13:13.000Z,97644.22
2023-02-21T07:16:14.515Z,97648.03
2023-02-21T07:22:19.014Z,97658.31
2023-02-21T07:25:22.240Z,97658.16
2023-02-21T07:28:23.794Z,97659.19
2023-02-21T07:31:25.344Z,97658.75
2023-02-21T07:34:26.878Z,97649.78
2023-02-21T07:37:28.418Z,97656.31
2023-02-21T07:40:29.934Z,97660.72
2023-02-21T07:43:32.544Z,97655.59
2023-02-21T07:46:34.822Z,97653.13
2023-02-21T07:49:41.332Z,97654.78
2023-02-21T07:52:42.928Z,97657.25
2023-02-21T07:55:44.482Z,97656.88
2023-02-21T07:58:45.943Z,97663.16
2023-02-21T08:01:47.884Z,97656.56
2023-02-21T08:04:52.816Z,97663.50
2023-02-21T08:07:56.095Z,97658.00
2023-02-21T08:10:57.694Z,97650.22
2023-02-21T08:13:59.819Z,97650.41
2023-02-21T08:17:01.312Z,97657.44
2023-02-21T08:20:04.708Z,97644.97
2023-02-21T08:23:06.129Z,97651.28
2023-02-21T08:26:07.664Z,97646.84
2023-02-21T08:29:09.267Z,97643.28
2023-02-21T08:32:11.078Z,97646.22
2023-02-21T08:35:15.328Z,97644.72
2023-02-21T08:38:18.531Z,97643.81
2023-02-21T08:41:20.039Z,97646.19
2023-02-21T08:44:21.835Z,97635.31
2023-02-21T08:47:23.406Z,97633.53
2023-02-21T08:50:28.341Z,97627.88
2023-02-21T08:53:29.878Z,97628.53
2023-02-21T08:56:31.810Z,97630.47
2023-02-21T08:59:34.863Z,97625.56
2023-02-21T09:02:40.565Z,97618.47
2023-02-21T09:05:42.061Z,97624.34
2023-02-21T09:08:43.714Z,97615.91
2023-02-21T09:11:48.322Z,97612.28
2023-02-21T09:14:49.796Z,97618.97
2023-02-21T09:17:54.344Z,97616.88
2023-02-21T09:20:57.427Z,97606.56
2023-02-21T09:24:02.935Z,97600.63
2023-02-21T09:27:06.078Z,97604.69
2023-02-21T09:30:09.943Z,97603.66
2023-02-21T09:33:12.394Z,97594.28
2023-02-21T09:36:13.947Z,97595.81
2023-02-21T09:39:16.162Z,97598.97
2023-02-21T09:42:18.907Z,97592.31
2023-02-21T09:45:22.408Z,97581.78
2023-02-21T09:48:24.261Z,97585.81
2023-02-21T09:51:26.558Z,97573.38
2023-02-21T09:54:35.788Z,97570.16
2023-02-21T09:57:37.775Z,97572.53
2023-02-21T10:00:39.625Z,97564.66
2023-02-21T10:03:51.882Z,97567.69
2023-02-21T10:06:59.742Z,97565.38
2023-02-21T10:10:10.222Z,97563.75
2023-02-21T10:13:17.486Z,97564.91
2023-02-21T10:16:32.077Z,97565.56
2023-02-21T10:19:42.074Z,97554.47
2023-02-21T10:22:47.537Z,97560.25
2023-02-21T10:25:55.400Z,97556.44
2023-02-21T10:28:57.236Z,97559.38
2023-02-21T10:32:03.324Z,97561.81
2023-02-21T10:35:05.235Z,97551.41
2023-02-21T10:38:11.553Z,97553.34
2023-02-21T10:41:13.349Z,97543.41
2023-02-21T10:44:26.952Z,97549.19
2023-02-21T10:47:58.766Z,97540.22
2023-02-21T10:51:03.385Z,97549.25
2023-02-21T10:54:25.345Z,97537.94
2023-02-21T10:57:27.928Z,97529.94
2023-02-21T11:00:38.876Z,97528.56
2023-02-21T11:03:46.948Z,97527.31
2023-02-21T11:06:51.549Z,97519.97
2023-02-21T11:09:53.153Z,97518.00
2023-02-21T11:13:10.237Z,97507.44
2023-02-21T11:16:24.590Z,97506.47
2023-02-21T11:19:26.019Z,97499.91
2023-02-21T11:22:34.813Z,97492.78
2023-02-21T11:25:40.466Z,97484.25
2023-02-21T11:28:47.439Z,97476.69
2023-02-21T11:31:48.997Z,97477.25
2023-02-21T11:34:51.145Z,97475.16
2023-02-21T11:38:05.565Z,97461.06
2023-02-21T11:41:27.273Z,97458.66
2023-02-21T11:44:38.182Z,97458.34
2023-02-21T11:47:46.394Z,97450.25
2023-02-21T11:50:53.499Z,97447.06
2023-02-21T11:53:55.005Z,97439.53
2023-02-21T11:57:06.671Z,97429.38
2023-02-21T12:00:25.743Z,97421.50
2023-02-21T12:03:37.469Z,97420.50
2023-02-21T12:06:50.303Z,97408.06
2023-02-21T12:10:03.854Z,97423.16
2023-02-21T12:13:33.591Z,97413.38
2023-02-21T12:16:53.649Z,97398.66
2023-02-21T12:20:13.810Z,97393.84
2023-02-21T12:23:41.313Z,97394.28
2023-02-21T12:26:51.520Z,97382.53
2023-02-21T12:30:11.927Z,97375.56
2023-02-21T12:33:16.200Z,97370.31
2023-02-21T12:36:30.563Z,97365.06
2023-02-21T12:39:50.974Z,97349.16
2023-02-21T12:43:30.192Z,97349.88
2023-02-21T12:46:45.464Z,97352.53
2023-02-21T12:49:46.941Z,97344.16
2023-02-21T12:53:03.418Z,97329.66
2023-02-21T12:56:13.950Z,97330.13
2023-02-21T12:59:42.508Z,97323.19
2023-02-21T13:03:01.242Z,97320.75
2023-02-21T13:06:09.915Z,97322.38
2023-02-21T13:09:20.131Z,97309.28
2023-02-21T13:12:28.231Z,97315.47
2023-02-21T13:15:31.110Z,97297.84
2023-02-21T13:18:40.589Z,97298.09
2023-02-21T13:21:54.340Z,97291.94
2023-02-21T13:25:18.078Z,97284.34
2023-02-21T13:28:25.614Z,97282.72
2023-02-21T13:31:38.172Z,97269.59
2023-02-21T13:34:45.692Z,97267.53
2023-02-21T13:37:51.818Z,97268.56
2023-02-21T13:41:03.145Z,97254.41
2023-02-21T13:44:27.901Z,97251.13
2023-02-21T13:47:55.136Z,97236.34
2023-02-21T13:50:59.111Z,97240.47
2023-02-21T13:54:24.863Z,97234.31
2023-02-21T13:57:34.545Z,97229.81
2023-02-21T14:00:36.022Z,97221.16
2023-02-21T14:03:37.547Z,97225.63
2023-02-21T14:06:40.170Z,97225.63
2023-02-21T14:09:42.345Z,97211.63
2023-02-21T14:12:45.294Z,97219.81
2023-02-21T14:15:49.731Z,97211.94
2023-02-21T14:19:07.379Z,97212.13
2023-02-21T14:22:25.045Z,97201.84
2023-02-21T14:25:27.743Z,97200.00
2023-02-21T14:29:08.422Z,97192.66
2023-02-21T14:32:10.000Z,97191.88
2023-02-21T14:35:35.417Z,97197.63
2023-02-21T14:38:42.325Z,97182.88
2023-02-21T14:42:05.728Z,97190.59
2023-02-21T14:45:10.019Z,97177.84
2023-02-21T14:48:33.841Z,97187.22
2023-02-21T14:52:19.719Z,97181.34
2023-02-21T14:55:50.746Z,97178.91
2023-02-21T14:59:39.932Z,97174.03
2023-02-21T15:02:50.038Z,97167.06
2023-02-21T15:06:03.939Z,97172.03
2023-02-21T15:09:17.569Z,97166.38
2023-02-21T15:12:19.062Z,97166.19
2023-02-21T15:15:22.981Z,97164.38
2023-02-21T15:18:29.742Z,97166.03
2023-02-21T15:21:31.271Z,97169.66
2023-02-21T15:24:32.728Z,97165.94
2023-02-21T15:27:51.530Z,97172.84
2023-02-21T15:31:00.441Z,97162.03
2023-02-21T15:34:02.778Z,97167.75
2023-02-21T15:37:16.382Z,97163.00
2023-02-21T15:40:23.176Z,97166.31
2023-02-21T15:43:44.840Z,97163.44
2023-02-21T15:47:08.923Z,97155.97
2023-02-21T15:50:18.725Z,97164.19
2023-02-21T15:53:24.837Z,97164.72
2023-02-21T15:56:28.509Z,97160.22
2023-02-21T15:59:30.847Z,97162.75
2023-02-21T16:02:32.559Z,97158.38
2023-02-21T16:05:34.040Z,97158.03
2023-02-21T16:08:39.196Z,97158.56
2023-02-21T16:12:19.551Z,97152.94
2023-02-21T16:15:25.959Z,97153.44
2023-02-21T16:18:27.508Z,97151.38
2023-02-21T16:21:29.828Z,97142.41
2023-02-21T16:24:32.745Z,97138.50
2023-02-21T16:27:34.331Z,97139.41
2023-02-21T16:30:35.996Z,97139.13
2023-02-21T16:33:37.512Z,97139.66
2023-02-21T16:36:40.895Z,97142.16
2023-02-21T16:39:42.806Z,97144.03
2023-02-21T16:42:44.282Z,97148.75
2023-02-21T16:45:48.482Z,97148.03
2023-02-21T16:48:50.026Z,97152.19
2023-02-21T16:51:51.494Z,97148.59
2023-02-21T16:54:52.960Z,97147.16
2023-02-21T16:57:59.214Z,97152.31
2023-02-21T17:01:07.955Z,97151.91
2023-02-21T17:04:22.960Z,97160.97
2023-02-21T17:07:25.639Z,97165.81
2023-02-21T17:10:27.185Z,97162.97
2023-02-21T17:13:28.609Z,97169.41
2023-02-21T17:16:30.667Z,97167.72
2023-02-21T17:19:32.499Z,97170.44
2023-02-21T17:22:34.522Z,97177.44
2023-02-21T17:25:36.505Z,97188.00
2023-02-21T17:28:39.361Z,97175.72
2023-02-21T17:31:40.932Z,97182.97
2023-02-21T17:34:43.206Z,97177.38
2023-02-21T17:37:47.451Z,97185.44
2023-02-21T17:40:49.510Z,97189.75
2023-02-21T17:43:51.044Z,97190.41
2023-02-21T17:46:55.832Z,97185.97
2023-02-21T17:50:01.829Z,97192.53
2023-02-21T17:53:04.374Z,97194.84
2023-02-21T17:56:05.895Z,97185.44
2023-02-21T17:59:07.447Z,97186.59
2023-02-21T18:02:08.978Z,97193.00
2023-02-21T18:05:10.573Z,97182.13
2023-02-21T18:08:12.090Z,97180.13
2023-02-21T18:11:16.350Z,97182.03
2023-02-21T18:14:19.031Z,97169.00
2023-02-21T18:17:20.677Z,97174.38
2023-02-21T18:20:22.414Z,97160.22
2023-02-21T18:23:23.849Z,97166.81
2023-02-21T18:26:25.360Z,97165.84
2023-02-21T18:29:26.935Z,97165.47
2023-02-21T18:32:28.521Z,97160.53
2023-02-21T18:35:30.182Z,97149.31
2023-02-21T18:38:31.676Z,97157.81
2023-02-21T18:41:33.470Z,97150.34
2023-02-21T18:44:35.007Z,97148.38
2023-02-21T18:47:36.466Z,97147.13
2023-02-21T18:50:37.997Z,97141.47
2023-02-21T18:53:40.052Z,97133.19
2023-02-21T18:56:49.147Z,97134.28
2023-02-21T18:59:50.723Z,97129.47
2023-02-21T19:02:52.618Z,97131.69
2023-02-21T19:05:54.092Z,97134.34
2023-02-21T19:08:55.658Z,97130.81
2023-02-21T19:11:57.161Z,97126.69
2023-02-21T19:14:58.675Z,97129.53
2023-02-21T19:18:00.351Z,97125.94
2023-02-21T19:21:01.953Z,97130.66
2023-02-21T19:24:04.253Z,97122.88
2023-02-21T19:27:05.761Z,97131.84
2023-02-21T19:30:07.929Z,97125.78
2023-02-21T19:33:09.442Z,97124.44
2023-02-21T19:36:11.890Z,97134.28
2023-02-21T19:39:13.722Z,97134.19
2023-02-21T19:42:15.220Z,97138.84
2023-02-21T19:45:18.077Z,97138.88
2023-02-21T19:48:21.197Z,97143.38
2023-02-21T19:51:25.017Z,97143.88
2023-02-21T19:54:32.639Z,97138.38
2023-02-21T19:57:34.222Z,97142.50
2023-02-21T20:00:38.503Z,97141.31
2023-02-21T20:03:41.792Z,97150.72
2023-02-21T20:06:43.233Z,97143.59
2023-02-21T20:09:48.238Z,97147.44
2023-02-21T20:12:49.801Z,97150.38
2023-02-21T20:15:51.400Z,97145.16
2023-02-21T20:18:54.255Z,97144.53
2023-02-21T20:21:57.129Z,97159.19
2023-02-21T20:24:58.640Z,97151.50
2023-02-21T20:28:00.416Z,97159.78
2023-02-21T20:31:01.998Z,97169.84
2023-02-21T20:34:06.759Z,97172.91
2023-02-21T20:37:10.995Z,97173.59
2023-02-21T20:40:15.273Z,97176.22
2023-02-21T20:43:16.755Z,97168.94
2023-02-21T20:46:22.664Z,97181.09
2023-02-21T20:49:24.137Z,97180.69
2023-02-21T20:52:25.604Z,97178.59
2023-02-21T20:55:27.148Z,97182.47
2023-02-21T20:58:29.133Z,97174.75
2023-02-21T21:01:31.325Z,97180.28
2023-02-21T21:04:38.306Z,97180.28
2023-02-21T21:07:41.343Z,97180.00
2023-02-21T21:10:48.379Z,97183.88
2023-02-21T21:13:50.104Z,97177.81
2023-02-21T21:16:52.397Z,97185.41
2023-02-21T21:19:54.816Z,97174.78
2023-02-21T21:22:56.339Z,97177.94
2023-02-21T21:26:02.022Z,97176.44
2023-02-21T21:29:08.964Z,97182.22
2023-02-21T21:32:12.559Z,97184.00
2023-02-21T21:35:17.003Z,97178.09
2023-02-21T21:38:18.901Z,97175.06
2023-02-21T21:41:20.416Z,97179.06
2023-02-21T21:44:23.145Z,97168.84
2023-02-21T21:47:27.007Z,97173.41
2023-02-21T21:50:28.457Z,97170.22
2023-02-21T21:53:30.036Z,97170.91
2023-02-21T21:56:31.794Z,97174.78
2023-02-21T21:59:33.479Z,97169.13
2023-02-21T22:02:34.974Z,97165.78
2023-02-21T22:05:36.540Z,97168.69
2023-02-21T22:08:38.912Z,97160.44
2023-02-21T22:11:42.659Z,97159.75
2023-02-21T22:14:44.125Z,97156.31
2023-02-21T22:17:45.664Z,97158.63
2023-02-21T22:20:50.023Z,97156.00
2023-02-21T22:23:51.993Z,97154.09
2023-02-21T22:26:55.328Z,97152.41
2023-02-21T22:29:58.341Z,97150.22
2023-02-21T22:32:59.898Z,97146.63
2023-02-21T22:36:02.267Z,97145.53
2023-02-21T22:39:11.011Z,97144.69
2023-02-21T22:42:12.609Z,97135.47
2023-02-21T22:45:14.056Z,97135.91
2023-02-21T22:48:18.322Z,97132.28
2023-02-21T22:51:27.872Z,97142.63
2023-02-21T22:54:31.581Z,97133.78
2023-02-21T22:57:33.368Z,97135.03
2023-02-21T23:00:35.796Z,97131.34
2023-02-21T23:03:40.713Z,97131.63
2023-02-21T23:06:43.608Z,97127.06
2023-02-21T23:09:45.394Z,97129.38
2023-02-21T23:12:49.697Z,97131.72
2023-02-21T23:15:53.690Z,97133.25
2023-02-21T23:18:56.181Z,97124.28
2023-02-21T23:21:58.017Z,97130.34
2023-02-21T23:24:59.442Z,97127.03
2023-02-21T23:28:06.998Z,97126.88
2023-02-21T23:31:08.457Z,97125.75
2023-02-21T23:34:11.941Z,97118.84
2023-02-21T23:37:15.251Z,97116.91
2023-02-21T23:40:19.828Z,97121.41
2023-02-21T23:43:25.080Z,97121.66
2023-02-21T23:46:29.123Z,97118.66
2023-02-21T23:49:30.763Z,97112.47
2023-02-21T23:52:32.260Z,97115.22
2023-02-21T23:55:35.730Z,97116.69
2023-02-21T23:58:38.996Z,97117.91
